sensor_id;sensor_type;location;lat;lon;timestamp;temperature;humidity
25668;DHT22;18003;-33.830;151.202;2023-04-25T00:00:40;19.40;99.90
25668;DHT22;18003;-33.830;151.202;2023-04-25T00:03:10;19.40;99.90
25668;DHT22;18003;-33.830;151.202;2023-04-25T00:05:41;19.40;99.90
25668;DHT22;18003;-33.830;151.202;2023-04-25T00:08:11;19.40;99.90
25668;DHT22;18003;-33.830;151.202;2023-04-25T00:10:41;19.30;99.90
25668;DHT22;18003;-33.830;151.202;2023-04-25T00:13:11;19.40;99.90
25668;DHT22;18003;-33.830;151.202;2023-04-25T00:15:41;19.40;99.90
25668;DHT22;18003;-33.830;151.202;2023-04-25T00:18:11;19.30;99.90
25668;DHT22;18003;-33.830;151.202;2023-04-25T00:20:41;19.40;99.90
25668;DHT22;18003;-33.830;151.202;2023-04-25T00:23:13;19.40;99.90
25668;DHT22;18003;-33.830;151.202;2023-04-25T00:25:44;19.40;99.90
25668;DHT22;18003;-33.830;151.202;2023-04-25T00:28:14;19.40;99.90
25668;DHT22;18003;-33.830;151.202;2023-04-25T00:30:44;19.40;99.90
25668;DHT22;18003;-33.830;151.202;2023-04-25T00:33:14;19.40;99.90
25668;DHT22;18003;-33.830;151.202;2023-04-25T00:35:44;19.40;99.90
25668;DHT22;18003;-33.830;151.202;2023-04-25T00:38:14;19.40;99.90
25668;DHT22;18003;-33.830;151.202;2023-04-25T00:40:44;19.20;99.90
25668;DHT22;18003;-33.830;151.202;2023-04-25T00:43:14;19.50;99.90
25668;DHT22;18003;-33.830;151.202;2023-04-25T00:45:45;19.50;99.90
25668;DHT22;18003;-33.830;151.202;2023-04-25T00:48:19;19.50;99.90
25668;DHT22;18003;-33.830;151.202;2023-04-25T00:50:56;19.50;99.90
25668;DHT22;18003;-33.830;151.202;2023-04-25T00:53:22;19.50;99.90
25668;DHT22;18003;-33.830;151.202;2023-04-25T00:55:53;19.50;99.90
25668;DHT22;18003;-33.830;151.202;2023-04-25T00:58:23;19.50;99.90
25668;DHT22;18003;-33.830;151.202;2023-04-25T01:00:53;19.60;99.90
25668;DHT22;18003;-33.830;151.202;2023-04-25T01:03:25;19.50;99.90
25668;DHT22;18003;-33.830;151.202;2023-04-25T01:05:55;19.50;99.90
25668;DHT22;18003;-33.830;151.202;2023-04-25T01:08:26;19.50;99.90
25668;DHT22;18003;-33.830;151.202;2023-04-25T01:10:56;19.50;99.90
25668;DHT22;18003;-33.830;151.202;2023-04-25T01:13:26;19.50;99.90
25668;DHT22;18003;-33.830;151.202;2023-04-25T01:15:56;19.60;99.90
25668;DHT22;18003;-33.830;151.202;2023-04-25T01:18:26;19.70;99.90
25668;DHT22;18003;-33.830;151.202;2023-04-25T01:20:56;19.70;99.90
25668;DHT22;18003;-33.830;151.202;2023-04-25T01:23:27;19.70;99.90
25668;DHT22;18003;-33.830;151.202;2023-04-25T01:25:57;19.50;99.90
25668;DHT22;18003;-33.830;151.202;2023-04-25T01:28:27;19.70;99.90
25668;DHT22;18003;-33.830;151.202;2023-04-25T01:30:58;19.70;99.90
25668;DHT22;18003;-33.830;151.202;2023-04-25T01:33:30;19.70;99.90
25668;DHT22;18003;-33.830;151.202;2023-04-25T01:35:59;19.80;99.90
25668;DHT22;18003;-33.830;151.202;2023-04-25T01:38:29;19.70;99.90
25668;DHT22;18003;-33.830;151.202;2023-04-25T01:40:59;19.70;99.90
25668;DHT22;18003;-33.830;151.202;2023-04-25T01:43:29;19.70;99.90
25668;DHT22;18003;-33.830;151.202;2023-04-25T01:45:59;19.70;99.90
25668;DHT22;18003;-33.830;151.202;2023-04-25T01:48:29;19.70;99.90
25668;DHT22;18003;-33.830;151.202;2023-04-25T01:51:00;19.80;99.90
25668;DHT22;18003;-33.830;151.202;2023-04-25T01:53:29;19.80;99.90
25668;DHT22;18003;-33.830;151.202;2023-04-25T01:56:02;19.80;99.90
25668;DHT22;18003;-33.830;151.202;2023-04-25T01:58:32;19.80;99.90
25668;DHT22;18003;-33.830;151.202;2023-04-25T02:01:02;19.90;99.90
25668;DHT22;18003;-33.830;151.202;2023-04-25T02:03:33;19.90;99.90
25668;DHT22;18003;-33.830;151.202;2023-04-25T02:06:04;19.90;99.90
25668;DHT22;18003;-33.830;151.202;2023-04-25T02:08:34;19.90;99.90
25668;DHT22;18003;-33.830;151.202;2023-04-25T02:11:06;19.90;99.90
25668;DHT22;18003;-33.830;151.202;2023-04-25T02:13:36;19.90;99.90
25668;DHT22;18003;-33.830;151.202;2023-04-25T02:16:06;19.90;99.90
25668;DHT22;18003;-33.830;151.202;2023-04-25T02:18:36;20.00;99.90
25668;DHT22;18003;-33.830;151.202;2023-04-25T02:21:06;19.90;99.90
25668;DHT22;18003;-33.830;151.202;2023-04-25T02:23:36;19.90;99.90
25668;DHT22;18003;-33.830;151.202;2023-04-25T02:26:07;19.90;99.90
25668;DHT22;18003;-33.830;151.202;2023-04-25T02:28:37;20.00;99.90
25668;DHT22;18003;-33.830;151.202;2023-04-25T02:31:07;19.90;99.90
25668;DHT22;18003;-33.830;151.202;2023-04-25T02:33:37;19.90;99.90
25668;DHT22;18003;-33.830;151.202;2023-04-25T02:36:07;19.90;99.90
25668;DHT22;18003;-33.830;151.202;2023-04-25T02:38:37;19.90;99.90
25668;DHT22;18003;-33.830;151.202;2023-04-25T02:41:07;19.90;99.90
25668;DHT22;18003;-33.830;151.202;2023-04-25T02:43:37;20.00;99.90
25668;DHT22;18003;-33.830;151.202;2023-04-25T02:46:07;20.00;99.90
25668;DHT22;18003;-33.830;151.202;2023-04-25T02:48:37;20.00;99.90
25668;DHT22;18003;-33.830;151.202;2023-04-25T02:51:07;20.00;99.90
25668;DHT22;18003;-33.830;151.202;2023-04-25T02:53:37;20.00;99.90
25668;DHT22;18003;-33.830;151.202;2023-04-25T02:56:07;20.00;99.90
25668;DHT22;18003;-33.830;151.202;2023-04-25T02:58:37;20.00;99.90
25668;DHT22;18003;-33.830;151.202;2023-04-25T03:01:07;19.90;99.90
25668;DHT22;18003;-33.830;151.202;2023-04-25T03:03:37;19.90;99.90
25668;DHT22;18003;-33.830;151.202;2023-04-25T03:06:07;19.90;99.90
25668;DHT22;18003;-33.830;151.202;2023-04-25T03:08:37;20.00;99.90
25668;DHT22;18003;-33.830;151.202;2023-04-25T03:11:08;19.90;99.90
25668;DHT22;18003;-33.830;151.202;2023-04-25T03:13:39;20.00;99.90
25668;DHT22;18003;-33.830;151.202;2023-04-25T03:16:09;20.00;99.90
25668;DHT22;18003;-33.830;151.202;2023-04-25T03:18:39;20.00;99.90
25668;DHT22;18003;-33.830;151.202;2023-04-25T03:21:09;20.00;99.90
25668;DHT22;18003;-33.830;151.202;2023-04-25T03:23:39;20.00;99.90
25668;DHT22;18003;-33.830;151.202;2023-04-25T03:26:09;20.00;99.90
25668;DHT22;18003;-33.830;151.202;2023-04-25T03:28:39;20.00;99.90
25668;DHT22;18003;-33.830;151.202;2023-04-25T03:31:10;20.00;99.90
25668;DHT22;18003;-33.830;151.202;2023-04-25T03:33:40;20.00;99.90
25668;DHT22;18003;-33.830;151.202;2023-04-25T03:36:10;20.10;99.90
25668;DHT22;18003;-33.830;151.202;2023-04-25T03:38:41;20.20;99.90
25668;DHT22;18003;-33.830;151.202;2023-04-25T03:41:11;20.20;99.90
25668;DHT22;18003;-33.830;151.202;2023-04-25T03:43:41;20.20;99.90
25668;DHT22;18003;-33.830;151.202;2023-04-25T03:46:11;18.10;99.90
25668;DHT22;18003;-33.830;151.202;2023-04-25T03:48:41;20.10;99.90
25668;DHT22;18003;-33.830;151.202;2023-04-25T03:51:11;20.10;99.90
25668;DHT22;18003;-33.830;151.202;2023-04-25T03:53:43;20.10;99.90
25668;DHT22;18003;-33.830;151.202;2023-04-25T03:56:14;20.10;99.90
25668;DHT22;18003;-33.830;151.202;2023-04-25T03:58:44;20.10;99.90
25668;DHT22;18003;-33.830;151.202;2023-04-25T04:01:14;20.10;99.90
25668;DHT22;18003;-33.830;151.202;2023-04-25T04:03:45;20.10;99.90
25668;DHT22;18003;-33.830;151.202;2023-04-25T04:06:15;20.10;99.90
25668;DHT22;18003;-33.830;151.202;2023-04-25T04:08:45;20.10;99.90
25668;DHT22;18003;-33.830;151.202;2023-04-25T04:11:15;20.10;99.90
25668;DHT22;18003;-33.830;151.202;2023-04-25T04:13:45;20.10;99.90
25668;DHT22;18003;-33.830;151.202;2023-04-25T04:16:18;20.10;99.90
25668;DHT22;18003;-33.830;151.202;2023-04-25T04:18:48;20.10;99.90
25668;DHT22;18003;-33.830;151.202;2023-04-25T04:21:18;20.10;99.90
25668;DHT22;18003;-33.830;151.202;2023-04-25T04:23:48;20.10;99.90
25668;DHT22;18003;-33.830;151.202;2023-04-25T04:26:18;20.10;99.90
25668;DHT22;18003;-33.830;151.202;2023-04-25T04:28:49;20.20;99.90
25668;DHT22;18003;-33.830;151.202;2023-04-25T04:31:20;20.10;99.90
25668;DHT22;18003;-33.830;151.202;2023-04-25T04:33:50;20.10;99.90
25668;DHT22;18003;-33.830;151.202;2023-04-25T04:36:20;20.10;99.90
25668;DHT22;18003;-33.830;151.202;2023-04-25T04:38:51;20.10;99.90
25668;DHT22;18003;-33.830;151.202;2023-04-25T04:41:21;20.10;99.90
25668;DHT22;18003;-33.830;151.202;2023-04-25T04:43:51;20.20;99.90
25668;DHT22;18003;-33.830;151.202;2023-04-25T04:46:21;20.10;99.90
25668;DHT22;18003;-33.830;151.202;2023-04-25T04:48:53;20.10;99.90
25668;DHT22;18003;-33.830;151.202;2023-04-25T04:51:24;20.10;99.90
25668;DHT22;18003;-33.830;151.202;2023-04-25T04:53:54;20.10;99.90
25668;DHT22;18003;-33.830;151.202;2023-04-25T04:56:25;20.10;99.90
25668;DHT22;18003;-33.830;151.202;2023-04-25T04:58:56;20.10;99.90
25668;DHT22;18003;-33.830;151.202;2023-04-25T05:01:27;20.10;99.90
25668;DHT22;18003;-33.830;151.202;2023-04-25T05:03:58;20.10;99.90
25668;DHT22;18003;-33.830;151.202;2023-04-25T05:06:28;20.10;99.90
25668;DHT22;18003;-33.830;151.202;2023-04-25T05:08:59;20.00;99.90
25668;DHT22;18003;-33.830;151.202;2023-04-25T05:11:29;20.10;99.90
25668;DHT22;18003;-33.830;151.202;2023-04-25T05:14:04;20.10;99.90
25668;DHT22;18003;-33.830;151.202;2023-04-25T05:16:34;20.00;99.90
25668;DHT22;18003;-33.830;151.202;2023-04-25T05:19:07;20.00;99.90
25668;DHT22;18003;-33.830;151.202;2023-04-25T05:21:36;20.00;99.90
25668;DHT22;18003;-33.830;151.202;2023-04-25T05:24:07;20.10;99.90
25668;DHT22;18003;-33.830;151.202;2023-04-25T05:26:37;20.00;99.90
25668;DHT22;18003;-33.830;151.202;2023-04-25T05:29:07;20.00;99.90
25668;DHT22;18003;-33.830;151.202;2023-04-25T05:31:37;20.00;99.90
25668;DHT22;18003;-33.830;151.202;2023-04-25T05:34:07;20.00;99.90
25668;DHT22;18003;-33.830;151.202;2023-04-25T05:36:37;20.00;99.90
25668;DHT22;18003;-33.830;151.202;2023-04-25T05:39:07;20.10;99.90
25668;DHT22;18003;-33.830;151.202;2023-04-25T05:41:37;20.00;99.90
25668;DHT22;18003;-33.830;151.202;2023-04-25T05:44:08;20.00;99.90
25668;DHT22;18003;-33.830;151.202;2023-04-25T05:46:38;20.00;99.90
25668;DHT22;18003;-33.830;151.202;2023-04-25T05:49:08;20.00;99.90
25668;DHT22;18003;-33.830;151.202;2023-04-25T05:51:38;18.80;99.90
25668;DHT22;18003;-33.830;151.202;2023-04-25T05:54:08;20.00;99.90
25668;DHT22;18003;-33.830;151.202;2023-04-25T05:56:38;19.90;99.90
25668;DHT22;18003;-33.830;151.202;2023-04-25T05:59:08;19.70;99.90
25668;DHT22;18003;-33.830;151.202;2023-04-25T06:01:39;20.30;99.90
25668;DHT22;18003;-33.830;151.202;2023-04-25T06:04:09;20.00;99.90
25668;DHT22;18003;-33.830;151.202;2023-04-25T06:06:38;20.00;99.90
25668;DHT22;18003;-33.830;151.202;2023-04-25T06:09:08;20.00;99.90
25668;DHT22;18003;-33.830;151.202;2023-04-25T06:11:38;20.00;99.90
25668;DHT22;18003;-33.830;151.202;2023-04-25T06:14:08;20.00;99.90
25668;DHT22;18003;-33.830;151.202;2023-04-25T06:16:38;20.00;99.90
25668;DHT22;18003;-33.830;151.202;2023-04-25T06:19:08;20.00;99.90
25668;DHT22;18003;-33.830;151.202;2023-04-25T06:21:39;20.00;99.90
25668;DHT22;18003;-33.830;151.202;2023-04-25T06:24:09;20.00;99.90
25668;DHT22;18003;-33.830;151.202;2023-04-25T06:26:39;20.00;99.90
25668;DHT22;18003;-33.830;151.202;2023-04-25T06:29:13;20.00;99.90
25668;DHT22;18003;-33.830;151.202;2023-04-25T06:31:42;20.00;99.90
25668;DHT22;18003;-33.830;151.202;2023-04-25T06:34:12;20.00;99.90
25668;DHT22;18003;-33.830;151.202;2023-04-25T06:36:42;20.00;99.90
25668;DHT22;18003;-33.830;151.202;2023-04-25T06:39:12;20.00;99.90
25668;DHT22;18003;-33.830;151.202;2023-04-25T06:41:42;20.00;99.90
25668;DHT22;18003;-33.830;151.202;2023-04-25T06:44:12;20.00;99.90
25668;DHT22;18003;-33.830;151.202;2023-04-25T06:46:42;20.00;99.90
25668;DHT22;18003;-33.830;151.202;2023-04-25T06:49:12;20.00;99.90
25668;DHT22;18003;-33.830;151.202;2023-04-25T06:51:42;20.00;99.90
25668;DHT22;18003;-33.830;151.202;2023-04-25T06:54:12;20.00;99.90
25668;DHT22;18003;-33.830;151.202;2023-04-25T06:56:41;19.90;99.90
25668;DHT22;18003;-33.830;151.202;2023-04-25T06:59:11;20.00;99.90
25668;DHT22;18003;-33.830;151.202;2023-04-25T07:01:41;20.00;99.90
25668;DHT22;18003;-33.830;151.202;2023-04-25T07:04:11;20.00;99.90
25668;DHT22;18003;-33.830;151.202;2023-04-25T07:06:41;20.00;99.90
25668;DHT22;18003;-33.830;151.202;2023-04-25T07:09:11;20.00;99.90
25668;DHT22;18003;-33.830;151.202;2023-04-25T07:11:41;20.00;99.90
25668;DHT22;18003;-33.830;151.202;2023-04-25T07:14:11;20.00;99.90
25668;DHT22;18003;-33.830;151.202;2023-04-25T07:16:41;20.00;99.90
25668;DHT22;18003;-33.830;151.202;2023-04-25T07:19:11;20.00;99.90
25668;DHT22;18003;-33.830;151.202;2023-04-25T07:21:41;19.90;99.90
25668;DHT22;18003;-33.830;151.202;2023-04-25T07:24:11;20.00;99.90
25668;DHT22;18003;-33.830;151.202;2023-04-25T07:26:41;19.90;99.90
25668;DHT22;18003;-33.830;151.202;2023-04-25T07:29:11;20.00;99.90
25668;DHT22;18003;-33.830;151.202;2023-04-25T07:31:42;19.90;99.90
25668;DHT22;18003;-33.830;151.202;2023-04-25T07:34:12;19.90;99.90
25668;DHT22;18003;-33.830;151.202;2023-04-25T07:36:42;19.90;99.90
25668;DHT22;18003;-33.830;151.202;2023-04-25T07:39:11;19.90;99.90
25668;DHT22;18003;-33.830;151.202;2023-04-25T07:41:41;19.90;99.90
25668;DHT22;18003;-33.830;151.202;2023-04-25T07:44:11;19.90;99.90
25668;DHT22;18003;-33.830;151.202;2023-04-25T07:46:41;19.90;99.90
25668;DHT22;18003;-33.830;151.202;2023-04-25T07:49:11;19.90;99.90
25668;DHT22;18003;-33.830;151.202;2023-04-25T07:51:41;19.90;99.90
25668;DHT22;18003;-33.830;151.202;2023-04-25T07:54:13;19.80;99.90
25668;DHT22;18003;-33.830;151.202;2023-04-25T07:56:42;19.80;99.90
25668;DHT22;18003;-33.830;151.202;2023-04-25T07:59:12;19.80;99.90
25668;DHT22;18003;-33.830;151.202;2023-04-25T08:01:42;19.80;99.90
25668;DHT22;18003;-33.830;151.202;2023-04-25T08:04:11;19.80;99.90
25668;DHT22;18003;-33.830;151.202;2023-04-25T08:06:41;19.80;99.90
25668;DHT22;18003;-33.830;151.202;2023-04-25T08:09:11;19.80;99.90
25668;DHT22;18003;-33.830;151.202;2023-04-25T08:11:41;19.80;99.90
25668;DHT22;18003;-33.830;151.202;2023-04-25T08:14:11;19.80;99.90
25668;DHT22;18003;-33.830;151.202;2023-04-25T08:16:41;19.80;99.90
25668;DHT22;18003;-33.830;151.202;2023-04-25T08:19:11;19.80;99.90
25668;DHT22;18003;-33.830;151.202;2023-04-25T08:21:41;19.80;99.90
25668;DHT22;18003;-33.830;151.202;2023-04-25T08:24:11;19.80;99.90
25668;DHT22;18003;-33.830;151.202;2023-04-25T08:26:42;19.70;99.90
25668;DHT22;18003;-33.830;151.202;2023-04-25T08:29:12;19.70;99.90
25668;DHT22;18003;-33.830;151.202;2023-04-25T08:31:42;19.70;99.90
25668;DHT22;18003;-33.830;151.202;2023-04-25T08:34:12;19.70;99.90
25668;DHT22;18003;-33.830;151.202;2023-04-25T08:36:43;19.70;99.90
25668;DHT22;18003;-33.830;151.202;2023-04-25T08:39:13;19.70;99.90
25668;DHT22;18003;-33.830;151.202;2023-04-25T08:41:43;19.70;99.90
25668;DHT22;18003;-33.830;151.202;2023-04-25T08:44:13;19.70;99.90
25668;DHT22;18003;-33.830;151.202;2023-04-25T08:46:42;19.70;99.90
25668;DHT22;18003;-33.830;151.202;2023-04-25T08:49:13;19.70;99.90
25668;DHT22;18003;-33.830;151.202;2023-04-25T08:51:45;19.70;99.90
25668;DHT22;18003;-33.830;151.202;2023-04-25T08:54:20;19.70;99.90
25668;DHT22;18003;-33.830;151.202;2023-04-25T08:56:51;19.70;99.90
25668;DHT22;18003;-33.830;151.202;2023-04-25T08:59:22;19.70;99.90
25668;DHT22;18003;-33.830;151.202;2023-04-25T09:01:54;19.60;99.90
25668;DHT22;18003;-33.830;151.202;2023-04-25T09:04:23;19.60;99.90
25668;DHT22;18003;-33.830;151.202;2023-04-25T09:06:53;19.70;99.90
25668;DHT22;18003;-33.830;151.202;2023-04-25T09:09:23;19.60;99.90
25668;DHT22;18003;-33.830;151.202;2023-04-25T09:11:54;19.60;99.90
25668;DHT22;18003;-33.830;151.202;2023-04-25T09:14:24;19.60;99.90
25668;DHT22;18003;-33.830;151.202;2023-04-25T09:16:57;19.60;99.90
25668;DHT22;18003;-33.830;151.202;2023-04-25T09:19:35;19.60;99.90
25668;DHT22;18003;-33.830;151.202;2023-04-25T09:22:06;19.60;99.90
25668;DHT22;18003;-33.830;151.202;2023-04-25T09:24:39;19.60;99.90
25668;DHT22;18003;-33.830;151.202;2023-04-25T09:27:10;19.60;99.90
25668;DHT22;18003;-33.830;151.202;2023-04-25T09:29:41;19.60;99.90
25668;DHT22;18003;-33.830;151.202;2023-04-25T09:32:19;19.60;99.90
25668;DHT22;18003;-33.830;151.202;2023-04-25T09:34:52;19.60;99.90
25668;DHT22;18003;-33.830;151.202;2023-04-25T09:37:23;19.60;99.90
25668;DHT22;18003;-33.830;151.202;2023-04-25T09:39:56;19.50;99.90
25668;DHT22;18003;-33.830;151.202;2023-04-25T09:42:28;19.50;99.90
25668;DHT22;18003;-33.830;151.202;2023-04-25T09:45:00;19.50;99.90
25668;DHT22;18003;-33.830;151.202;2023-04-25T09:47:32;19.50;99.90
25668;DHT22;18003;-33.830;151.202;2023-04-25T09:50:04;19.60;99.90
25668;DHT22;18003;-33.830;151.202;2023-04-25T09:52:35;19.50;99.90
25668;DHT22;18003;-33.830;151.202;2023-04-25T09:55:05;19.50;99.90
25668;DHT22;18003;-33.830;151.202;2023-04-25T09:57:36;19.50;99.90
25668;DHT22;18003;-33.830;151.202;2023-04-25T10:00:10;19.50;99.90
25668;DHT22;18003;-33.830;151.202;2023-04-25T10:02:42;19.50;99.90
25668;DHT22;18003;-33.830;151.202;2023-04-25T10:05:12;19.50;99.90
25668;DHT22;18003;-33.830;151.202;2023-04-25T10:07:43;19.50;99.90
25668;DHT22;18003;-33.830;151.202;2023-04-25T10:10:14;19.40;99.90
25668;DHT22;18003;-33.830;151.202;2023-04-25T10:12:44;19.50;99.90
25668;DHT22;18003;-33.830;151.202;2023-04-25T10:15:15;19.50;99.90
25668;DHT22;18003;-33.830;151.202;2023-04-25T10:17:45;19.50;99.90
25668;DHT22;18003;-33.830;151.202;2023-04-25T10:20:16;19.50;99.90
25668;DHT22;18003;-33.830;151.202;2023-04-25T10:22:47;19.40;99.90
25668;DHT22;18003;-33.830;151.202;2023-04-25T10:25:18;19.40;99.90
25668;DHT22;18003;-33.830;151.202;2023-04-25T10:27:52;19.40;99.90
25668;DHT22;18003;-33.830;151.202;2023-04-25T10:30:23;19.40;99.90
25668;DHT22;18003;-33.830;151.202;2023-04-25T10:32:54;19.40;99.90
25668;DHT22;18003;-33.830;151.202;2023-04-25T10:35:28;19.50;99.90
25668;DHT22;18003;-33.830;151.202;2023-04-25T10:38:03;19.40;99.90
25668;DHT22;18003;-33.830;151.202;2023-04-25T10:40:33;19.40;99.90
25668;DHT22;18003;-33.830;151.202;2023-04-25T10:43:39;19.40;99.90
25668;DHT22;18003;-33.830;151.202;2023-04-25T10:46:26;19.30;99.90
25668;DHT22;18003;-33.830;151.202;2023-04-25T10:49:01;19.30;99.90
25668;DHT22;18003;-33.830;151.202;2023-04-25T10:51:35;19.40;99.90
25668;DHT22;18003;-33.830;151.202;2023-04-25T10:54:07;19.30;99.90
25668;DHT22;18003;-33.830;151.202;2023-04-25T10:56:41;19.30;99.90
25668;DHT22;18003;-33.830;151.202;2023-04-25T10:59:20;19.30;99.90
25668;DHT22;18003;-33.830;151.202;2023-04-25T11:01:47;19.30;99.90
25668;DHT22;18003;-33.830;151.202;2023-04-25T11:04:33;19.30;99.90
25668;DHT22;18003;-33.830;151.202;2023-04-25T11:09:41;19.30;99.90
25668;DHT22;18003;-33.830;151.202;2023-04-25T11:12:18;19.30;99.90
25668;DHT22;18003;-33.830;151.202;2023-04-25T11:15:39;19.30;99.90
25668;DHT22;18003;-33.830;151.202;2023-04-25T11:17:41;19.30;99.90
25668;DHT22;18003;-33.830;151.202;2023-04-25T11:20:16;19.30;99.90
25668;DHT22;18003;-33.830;151.202;2023-04-25T11:22:51;19.30;99.90
25668;DHT22;18003;-33.830;151.202;2023-04-25T11:28:10;19.30;99.90
25668;DHT22;18003;-33.830;151.202;2023-04-25T11:33:26;19.20;99.90
25668;DHT22;18003;-33.830;151.202;2023-04-25T11:36:01;19.30;99.90
25668;DHT22;18003;-33.830;151.202;2023-04-25T11:38:37;19.20;99.90
25668;DHT22;18003;-33.830;151.202;2023-04-25T11:41:27;19.20;99.90
25668;DHT22;18003;-33.830;151.202;2023-04-25T11:44:30;19.20;99.90
25668;DHT22;18003;-33.830;151.202;2023-04-25T11:47:05;19.20;99.90
25668;DHT22;18003;-33.830;151.202;2023-04-25T11:49:35;19.20;99.90
25668;DHT22;18003;-33.830;151.202;2023-04-25T11:52:09;19.20;99.90
25668;DHT22;18003;-33.830;151.202;2023-04-25T11:54:44;19.20;99.90
25668;DHT22;18003;-33.830;151.202;2023-04-25T11:57:10;19.20;99.90
25668;DHT22;18003;-33.830;151.202;2023-04-25T11:59:50;19.20;99.90
25668;DHT22;18003;-33.830;151.202;2023-04-25T12:02:26;19.20;99.90
25668;DHT22;18003;-33.830;151.202;2023-04-25T12:05:03;19.20;99.90
25668;DHT22;18003;-33.830;151.202;2023-04-25T12:07:31;19.20;99.90
25668;DHT22;18003;-33.830;151.202;2023-04-25T12:10:11;19.10;99.90
25668;DHT22;18003;-33.830;151.202;2023-04-25T12:12:36;19.20;99.90
25668;DHT22;18003;-33.830;151.202;2023-04-25T12:17:52;19.10;99.90
25668;DHT22;18003;-33.830;151.202;2023-04-25T12:20:26;19.10;99.90
25668;DHT22;18003;-33.830;151.202;2023-04-25T12:22:58;19.10;99.90
25668;DHT22;18003;-33.830;151.202;2023-04-25T12:25:41;19.10;99.90
25668;DHT22;18003;-33.830;151.202;2023-04-25T12:28:16;19.10;99.90
25668;DHT22;18003;-33.830;151.202;2023-04-25T12:31:03;19.10;99.90
25668;DHT22;18003;-33.830;151.202;2023-04-25T12:33:38;19.10;99.90
25668;DHT22;18003;-33.830;151.202;2023-04-25T12:36:09;19.10;99.90
25668;DHT22;18003;-33.830;151.202;2023-04-25T12:38:41;19.10;99.90
25668;DHT22;18003;-33.830;151.202;2023-04-25T12:41:11;19.00;99.90
25668;DHT22;18003;-33.830;151.202;2023-04-25T12:43:41;19.10;99.90
25668;DHT22;18003;-33.830;151.202;2023-04-25T12:46:12;19.10;99.90
25668;DHT22;18003;-33.830;151.202;2023-04-25T12:48:44;19.10;99.90
25668;DHT22;18003;-33.830;151.202;2023-04-25T12:51:14;19.10;99.90
25668;DHT22;18003;-33.830;151.202;2023-04-25T12:53:44;19.10;99.90
25668;DHT22;18003;-33.830;151.202;2023-04-25T12:56:14;19.10;99.90
25668;DHT22;18003;-33.830;151.202;2023-04-25T12:58:44;19.10;99.90
25668;DHT22;18003;-33.830;151.202;2023-04-25T13:01:14;19.10;99.90
25668;DHT22;18003;-33.830;151.202;2023-04-25T13:03:44;19.10;99.90
25668;DHT22;18003;-33.830;151.202;2023-04-25T13:06:14;19.00;99.90
25668;DHT22;18003;-33.830;151.202;2023-04-25T13:08:44;19.00;99.90
25668;DHT22;18003;-33.830;151.202;2023-04-25T13:11:15;19.00;99.90
25668;DHT22;18003;-33.830;151.202;2023-04-25T13:13:45;19.00;99.90
25668;DHT22;18003;-33.830;151.202;2023-04-25T13:16:15;19.00;99.90
25668;DHT22;18003;-33.830;151.202;2023-04-25T13:18:45;19.10;99.90
25668;DHT22;18003;-33.830;151.202;2023-04-25T13:21:15;19.10;99.90
25668;DHT22;18003;-33.830;151.202;2023-04-25T13:23:45;19.00;99.90
25668;DHT22;18003;-33.830;151.202;2023-04-25T13:26:15;19.00;99.90
25668;DHT22;18003;-33.830;151.202;2023-04-25T13:28:45;19.00;99.90
25668;DHT22;18003;-33.830;151.202;2023-04-25T13:31:15;19.00;99.90
25668;DHT22;18003;-33.830;151.202;2023-04-25T13:33:45;19.00;99.90
25668;DHT22;18003;-33.830;151.202;2023-04-25T13:36:15;19.00;99.90
25668;DHT22;18003;-33.830;151.202;2023-04-25T13:38:46;19.00;99.90
25668;DHT22;18003;-33.830;151.202;2023-04-25T13:41:17;18.90;99.90
25668;DHT22;18003;-33.830;151.202;2023-04-25T13:43:47;19.00;99.90
25668;DHT22;18003;-33.830;151.202;2023-04-25T13:46:17;19.00;99.90
25668;DHT22;18003;-33.830;151.202;2023-04-25T13:48:47;18.90;99.90
25668;DHT22;18003;-33.830;151.202;2023-04-25T13:51:18;19.00;99.90
25668;DHT22;18003;-33.830;151.202;2023-04-25T13:53:48;19.00;99.90
25668;DHT22;18003;-33.830;151.202;2023-04-25T13:56:19;19.00;99.90
25668;DHT22;18003;-33.830;151.202;2023-04-25T13:58:54;19.00;99.90
25668;DHT22;18003;-33.830;151.202;2023-04-25T14:01:20;18.90;99.90
25668;DHT22;18003;-33.830;151.202;2023-04-25T14:03:50;19.00;99.90
25668;DHT22;18003;-33.830;151.202;2023-04-25T14:06:20;18.90;99.90
25668;DHT22;18003;-33.830;151.202;2023-04-25T14:08:52;18.90;99.90
25668;DHT22;18003;-33.830;151.202;2023-04-25T14:11:21;18.90;99.90
25668;DHT22;18003;-33.830;151.202;2023-04-25T14:13:51;18.90;99.90
25668;DHT22;18003;-33.830;151.202;2023-04-25T14:16:24;18.80;99.90
25668;DHT22;18003;-33.830;151.202;2023-04-25T14:18:54;18.90;99.90
25668;DHT22;18003;-33.830;151.202;2023-04-25T14:21:24;18.80;99.90
25668;DHT22;18003;-33.830;151.202;2023-04-25T14:23:56;18.90;99.90
25668;DHT22;18003;-33.830;151.202;2023-04-25T14:26:26;18.90;99.90
25668;DHT22;18003;-33.830;151.202;2023-04-25T14:28:56;18.80;99.90
25668;DHT22;18003;-33.830;151.202;2023-04-25T14:31:26;18.80;99.90
25668;DHT22;18003;-33.830;151.202;2023-04-25T14:33:56;18.80;99.90
25668;DHT22;18003;-33.830;151.202;2023-04-25T14:36:26;18.90;99.90
25668;DHT22;18003;-33.830;151.202;2023-04-25T14:38:57;18.80;99.90
25668;DHT22;18003;-33.830;151.202;2023-04-25T14:41:28;18.90;99.90
25668;DHT22;18003;-33.830;151.202;2023-04-25T14:43:58;18.80;99.90
25668;DHT22;18003;-33.830;151.202;2023-04-25T14:46:28;18.80;99.90
25668;DHT22;18003;-33.830;151.202;2023-04-25T14:49:02;18.80;99.90
25668;DHT22;18003;-33.830;151.202;2023-04-25T14:51:32;18.90;99.90
25668;DHT22;18003;-33.830;151.202;2023-04-25T14:54:02;18.80;99.90
25668;DHT22;18003;-33.830;151.202;2023-04-25T14:56:32;18.80;99.90
25668;DHT22;18003;-33.830;151.202;2023-04-25T14:59:02;18.90;99.90
25668;DHT22;18003;-33.830;151.202;2023-04-25T15:01:32;18.80;99.90
25668;DHT22;18003;-33.830;151.202;2023-04-25T15:04:03;18.80;99.90
25668;DHT22;18003;-33.830;151.202;2023-04-25T15:06:33;18.80;99.90
25668;DHT22;18003;-33.830;151.202;2023-04-25T15:09:03;18.80;99.90
25668;DHT22;18003;-33.830;151.202;2023-04-25T15:11:34;18.80;99.90
25668;DHT22;18003;-33.830;151.202;2023-04-25T15:14:04;18.80;99.90
25668;DHT22;18003;-33.830;151.202;2023-04-25T15:16:34;18.70;99.90
25668;DHT22;18003;-33.830;151.202;2023-04-25T15:19:04;18.80;99.90
25668;DHT22;18003;-33.830;151.202;2023-04-25T15:21:34;18.80;99.90